Morris, MN

10:36 PM CDT on May 27, 2018 (GMT -0500)
Morris Municipal

Weather History for KMOX - October, 2011

Change the Weather History Date:

Wednesday, October 5, 2011

  Actual Average Record
Temperature  
Mean Temperature 70 °F -  
Max Temperature 86 °F 62 °F 86 °F (2011)
Min Temperature 55 °F 38 °F 28 °F (2001)
Cooling Degree Days 6    
Growing Degree Days 20 (Base 50)    
Moisture  
Dew Point 42 °F    
Average Humidity 43    
Maximum Humidity 67    
Minimum Humidity 15    
Precipitation  
Precipitation 0.00 in - - ()
Sea Level Pressure  
Sea Level Pressure 29.94 in    
Wind  
Wind Speed 12 mph (SSE)    
Max Wind Speed 24 mph    
Max Gust Speed 33 mph    
Visibility 10 miles    
Events      
Averages and records for this station are not official NWS values.
T = Trace of Precipitation, MM = Missing Value Source: NWS Daily Summary

Daily Weather History Graph

Daily Weather History Graph

Search for Another Location

Airport or City:

Astronomy

Oct. 05, 2011 Rise Set
Actual Time 7:26 AM CDT 6:56 PM CDT
Civil Twilight 6:57 AM CDT 7:26 PM CDT
Nautical Twilight 6:22 AM CDT 8:00 PM CDT
Astronomical Twilight 5:48 AM CDT 8:35 PM CDT
Moon 3:53 PM CDT (10/5) 12:56 AM CDT (10/5)
Length of Visible Light 12h 29m
Length of Day
11h 30m
Waxing Gibbous, 66% of the Moon is Illuminated
Oct 5
Waxing Gibbous
Oct 11
Full
Oct 19
Last Quarter
Oct 26
New
Nov 2
First Quarter

Hourly Weather History & Observations

Time (CDT) Temp. Dew Point Humidity Pressure Visibility Wind Dir Wind Speed Gust Speed Precip Events Conditions
12:11 AM 64.4 °F 42.8 °F 45% 29.93 in 10.0 mi SE 11.5 mph - N/A   Clear
12:32 AM 62.6 °F 42.8 °F 48% 29.93 in 10.0 mi SE 11.5 mph - N/A   Clear
12:51 AM 62.6 °F 44.6 °F 52% 29.93 in 10.0 mi SE 10.4 mph - N/A   Clear
1:12 AM 62.6 °F 42.8 °F 48% 29.93 in 10.0 mi SSE 10.4 mph - N/A   Clear
1:32 AM 62.6 °F 44.6 °F 52% 29.93 in 10.0 mi SSE 11.5 mph - N/A   Clear
1:52 AM 60.8 °F 44.6 °F 55% 29.93 in 10.0 mi SSE 12.7 mph - N/A   Clear
2:12 AM 60.8 °F 44.6 °F 55% 29.93 in 10.0 mi SSE 10.4 mph - N/A   Clear
2:32 AM 60.8 °F 44.6 °F 55% 29.93 in 10.0 mi SE 10.4 mph - N/A   Clear
2:52 AM 60.8 °F 44.6 °F 55% 29.93 in 10.0 mi SE 10.4 mph - N/A   Clear
3:12 AM 59.0 °F 44.6 °F 59% 29.93 in 10.0 mi SE 9.2 mph - N/A   Clear
3:32 AM 59.0 °F 44.6 °F 59% 29.94 in 10.0 mi SE 8.1 mph - N/A   Clear
3:52 AM 57.2 °F 44.6 °F 63% 29.94 in 10.0 mi SE 8.1 mph - N/A   Clear
4:11 AM 57.2 °F 44.6 °F 63% 29.94 in 10.0 mi SE 8.1 mph - N/A   Clear
4:32 AM 57.2 °F 44.6 °F 63% 29.94 in 10.0 mi SE 9.2 mph - N/A   Clear
5:12 AM 55.4 °F 44.6 °F 67% 29.95 in 10.0 mi SE 9.2 mph - N/A   Clear
5:32 AM 55.4 °F 44.6 °F 67% 29.95 in 10.0 mi SE 8.1 mph - N/A   Clear
6:12 AM 57.2 °F 44.6 °F 63% 29.95 in 10.0 mi SE 10.4 mph - N/A   Clear
6:32 AM 57.2 °F 44.6 °F 63% 29.95 in 10.0 mi SE 10.4 mph - N/A   Clear
6:52 AM 55.4 °F 44.6 °F 67% 29.95 in 10.0 mi SE 9.2 mph - N/A   Clear
7:12 AM 55.4 °F 44.6 °F 67% 29.96 in 10.0 mi SE 9.2 mph - N/A   Clear
7:32 AM 55.4 °F 44.6 °F 67% 29.96 in 10.0 mi SE 10.4 mph - N/A   Clear
7:51 AM 55.4 °F 44.6 °F 67% 29.96 in 10.0 mi SE 9.2 mph - N/A   Clear
8:12 AM 57.2 °F 44.6 °F 63% 29.96 in 10.0 mi SE 9.2 mph - N/A   Clear
8:32 AM 59.0 °F 46.4 °F 63% 29.96 in 10.0 mi SE 11.5 mph - N/A   Clear
8:51 AM 60.8 °F 46.4 °F 59% 29.96 in 10.0 mi SE 10.4 mph - N/A   Clear
9:12 AM 62.6 °F 46.4 °F 55% 29.97 in 10.0 mi SE 12.7 mph - N/A   Clear
9:32 AM 64.4 °F 46.4 °F 52% 29.97 in 10.0 mi SE 12.7 mph - N/A   Clear
9:52 AM 66.2 °F 46.4 °F 49% 29.97 in 10.0 mi SSE 10.4 mph - N/A   Clear
10:12 AM 69.8 °F 46.4 °F 43% 29.97 in 10.0 mi SSE 12.7 mph - N/A   Clear
10:32 AM 69.8 °F 44.6 °F 40% 29.97 in 10.0 mi SSE 13.8 mph - N/A   Clear
10:51 AM 71.6 °F 44.6 °F 38% 29.97 in 10.0 mi SSE 11.5 mph - N/A   Clear
11:12 AM 73.4 °F 44.6 °F 36% 29.97 in 10.0 mi SSE 12.7 mph - N/A   Clear
11:32 AM 75.2 °F 44.6 °F 34% 29.97 in 10.0 mi SSE 13.8 mph - N/A   Clear
11:52 AM 77.0 °F 42.8 °F 29% 29.97 in 10.0 mi SSE 11.5 mph 18.4 mph N/A   Clear
12:12 PM 78.8 °F 42.8 °F 28% 29.97 in 10.0 mi SSE 15.0 mph - N/A   Clear
12:32 PM 80.6 °F 41.0 °F 24% 29.96 in 10.0 mi SSE 13.8 mph - N/A   Clear
12:52 PM 80.6 °F 42.8 °F 26% 29.96 in 10.0 mi SSE 16.1 mph - N/A   Clear
1:12 PM 82.4 °F 41.0 °F 23% 29.96 in 10.0 mi SSE 17.3 mph 24.2 mph N/A   Clear
1:32 PM 82.4 °F 41.0 °F 23% 29.95 in 10.0 mi SSE 16.1 mph 25.3 mph N/A   Clear
2:12 PM 84.2 °F 39.2 °F 20% 29.93 in 10.0 mi SSE 17.3 mph 24.2 mph N/A   Clear
2:51 PM 86.0 °F 37.4 °F 18% 29.92 in 10.0 mi South 19.6 mph 28.8 mph N/A   Clear
3:12 PM 86.0 °F 33.8 °F 15% 29.92 in 10.0 mi South 19.6 mph 33.4 mph N/A   Clear
3:31 PM 86.0 °F 33.8 °F 15% 29.92 in 10.0 mi South 24.2 mph 27.6 mph N/A   Clear
3:52 PM 86.0 °F 33.8 °F 15% 29.91 in 10.0 mi South 21.9 mph 29.9 mph N/A   Clear
4:12 PM 84.2 °F 33.8 °F 16% 29.90 in 10.0 mi South 19.6 mph - N/A   Clear
4:32 PM 84.2 °F 35.6 °F 18% 29.90 in 10.0 mi South 18.4 mph 26.5 mph N/A   Clear
5:12 PM 84.2 °F 33.8 °F 16% 29.89 in 10.0 mi South 21.9 mph 27.6 mph N/A   Clear
5:31 PM 82.4 °F 35.6 °F 19% 29.89 in 10.0 mi SSE 17.3 mph - N/A   Clear
6:12 PM 80.6 °F 35.6 °F 20% 29.89 in 10.0 mi SSE 15.0 mph 23.0 mph N/A   Clear
6:32 PM 78.8 °F 33.8 °F 20% 29.89 in 10.0 mi SSE 13.8 mph - N/A   Clear
6:52 PM 75.2 °F 35.6 °F 24% 29.89 in 10.0 mi SE 9.2 mph - N/A   Clear
7:12 PM 73.4 °F 35.6 °F 25% 29.90 in 10.0 mi SE 11.5 mph - N/A   Clear
7:31 PM 73.4 °F 35.6 °F 25% 29.90 in 10.0 mi SE 11.5 mph - N/A   Clear
7:52 PM 71.6 °F 35.6 °F 27% 29.90 in 10.0 mi SE 11.5 mph - N/A   Clear
8:12 PM 69.8 °F 35.6 °F 28% 29.91 in 10.0 mi SE 10.4 mph - N/A   Clear
8:31 PM 68.0 °F 35.6 °F 30% 29.91 in 10.0 mi SE 11.5 mph - N/A   Clear
8:52 PM 68.0 °F 37.4 °F 33% 29.92 in 10.0 mi SE 12.7 mph - N/A   Clear
9:12 PM 68.0 °F 35.6 °F 30% 29.92 in 10.0 mi SSE 13.8 mph - N/A   Clear
9:31 PM 68.0 °F 35.6 °F 30% 29.92 in 10.0 mi SE 15.0 mph - N/A   Clear
9:52 PM 66.2 °F 35.6 °F 32% 29.93 in 10.0 mi SE 13.8 mph - N/A   Clear
10:11 PM 66.2 °F 35.6 °F 32% 29.92 in 10.0 mi SE 15.0 mph - N/A   Clear
10:31 PM 66.2 °F 35.6 °F 32% 29.93 in 10.0 mi SE 15.0 mph - N/A   Clear
10:52 PM 64.4 °F 37.4 °F 37% 29.93 in 10.0 mi SE 15.0 mph - N/A   Clear
11:12 PM 64.4 °F 35.6 °F 34% 29.93 in 10.0 mi SE 15.0 mph - N/A   Clear
11:31 PM 64.4 °F 35.6 °F 34% 29.93 in 10.0 mi SE 13.8 mph - N/A   Clear
11:52 PM 62.6 °F 35.6 °F 37% 29.94 in 10.0 mi SE 12.7 mph - N/A   Clear